Hlavní strana
METAR-TAF:

METAR-TAF

Letiště :

Letiště Mnichov

Mnichov, Německo

zeměpisná šířka: 48-21N, zeměpisná délka: 011-47E, výška: 453 m

Aktuální stav počasí

Zpráva byla vytvořena před 9 minutami, v 20:50 UTC
Jihozápadní vítr 2 kt
Teplota 19°C
Vlhkost vzduchu 78%
Tlak 1019 hPa
Viditelnost 10 km a více
Žádná oblačnost pod 1500 m, nevyskytují se cumulonimby.

METAR: EDDM 192050Z 23002KT CAVOK 19/15 Q1019 NOSIG

Čas: 22:59 (20:59 UTC)

Předpověď počasí

Zpráva byla vytvořena před 3 hodinami a 59 minutami, v 17:00 UTC
Předpověď platná od 19 v 18 UTC do 20 v 24 UTC
Severoseverozápadní vítr 5 kt
Viditelnost 10 km a více
Žádná oblačnost pod 1500 m, nevyskytují se cumulonimby.
Změna
od 19 v 18 UTC do 19 v 20 UTC
Západojihozápadní vítr 5 kt
Změna
od 20 v 07 UTC do 20 v 09 UTC
Západoseverozápadní vítr 6 kt

TAF: EDDM 191700Z 1918/2024 34005KT CAVOK BECMG 1918/1920 24005KT BECMG 2007/2009 30006KT

Stav a předpovědi počasí z více než 4 000 letišť (zprávy METAR a TAF).

Červené a žluté tečky na mapě představují dostupné meteorologické stanice.

Když kurzor umístíte na tečku, zobrazí se název stanice.

Pak kliknutím zobrazíte stav a předpověď počasí.

Chcete-li změnit mapu, kliknutím na zelené tlačítko se znaménkem +mapu přiblížíte, kliknutím na zelené tlačítko se znaménkem – mapu oddálíte a kliknutím na zelené šipky přejdete na sousední mapy.


METAR-TAF: